Time;durP1;ratioP1;P1;durP2;ratioP2;P2;SDS_P1;SDS_P2;PMS_P1;PMS_P2;Temp;Humidity;BMP_temperature;BMP_pressure;BME280_temperature;BME280_humidity;BME280_pressure;Samples;Min_cycle;Max_cycle;Signal;HPM_P1;HPM_P2
2022/07/30 00:02:02;;;;;;;4.03;2.75;;;;;;;-145.69;100.00;71223.31;5072433;28;20199;-80
2022/07/30 00:04:28;;;;;;;5.15;3.25;;;;;;;-145.69;100.00;71243.22;5072477;28;20681;-80
2022/07/30 00:06:55;;;;;;;6.45;3.53;;;;;;;-145.69;100.00;71243.22;5072865;28;20202;-81
2022/07/30 00:09:21;;;;;;;5.65;3.17;;;;;;;-145.69;100.00;71227.28;5072777;28;20230;-81
2022/07/30 00:11:47;;;;;;;4.80;3.35;;;;;;;-145.69;100.00;71209.38;5072311;28;20550;-81
2022/07/30 00:14:14;;;;;;;6.85;3.45;;;;;;;-145.69;100.00;71247.19;5072174;28;20194;-80
2022/07/30 00:16:42;;;;;;;3.88;3.38;;;;;;;-145.69;100.00;71253.16;5072698;28;20194;-81
2022/07/30 00:19:08;;;;;;;6.20;3.72;;;;;;;-145.69;100.00;71243.22;5074897;28;20441;-81
2022/07/30 00:21:35;;;;;;;4.50;3.20;;;;;;;-145.69;100.00;71239.22;5076827;28;20557;-80
2022/07/30 00:24:02;;;;;;;4.95;3.25;;;;;;;-145.69;100.00;71247.19;5076687;28;20195;-81
2022/07/30 00:26:28;;;;;;;5.78;2.80;;;;;;;-145.69;100.00;71241.22;5076586;28;20199;-80
2022/07/30 00:28:55;;;;;;;5.00;2.92;;;;;;;-145.69;100.00;71213.38;5076431;28;20707;-81
2022/07/30 00:31:21;;;;;;;3.80;2.83;;;;;;;-145.69;100.00;71211.38;5076737;28;20210;-80
2022/07/30 00:33:49;;;;;;;5.32;3.20;;;;;;;-145.69;100.00;71211.38;5076737;28;20268;-82
2022/07/30 00:36:15;;;;;;;8.02;3.40;;;;;;;-145.69;100.00;71223.31;5076146;28;20553;-81
2022/07/30 00:38:42;;;;;;;6.78;3.20;;;;;;;-145.69;100.00;71223.31;5076363;28;20202;-81
2022/07/30 00:41:08;;;;;;;5.70;3.05;;;;;;;-145.69;100.00;71219.34;5075922;28;20216;-80
2022/07/30 00:43:35;;;;;;;4.40;3.00;;;;;;;-145.69;100.00;71207.38;5076463;28;20206;-81
2022/07/30 00:46:01;;;;;;;6.70;2.78;;;;;;;-145.69;100.00;71199.44;5076205;28;20610;-81
2022/07/30 00:48:27;;;;;;;5.20;2.70;;;;;;;-145.69;100.00;71175.56;5076377;28;20604;-81
2022/07/30 00:50:55;;;;;;;6.15;2.97;;;;;;;-145.69;100.00;71153.66;5075893;28;20242;-81
2022/07/30 00:53:22;;;;;;;3.30;2.60;;;;;;;-145.69;100.00;71143.72;5075113;28;20438;-81
2022/07/30 00:55:48;;;;;;;6.18;2.85;;;;;;;-145.69;100.00;71147.69;5072741;28;20210;-80
2022/07/30 00:58:15;;;;;;;4.75;2.80;;;;;;;-145.69;100.00;71135.75;5075917;28;20588;-82
2022/07/30 01:00:41;;;;;;;5.05;2.80;;;;;;;-145.69;100.00;71111.88;5075603;28;20198;-81
2022/07/30 01:03:08;;;;;;;17.95;2.78;;;;;;;-145.69;100.00;71117.84;5074926;28;20199;-81
2022/07/30 01:05:35;;;;;;;4.32;2.97;;;;;;;-145.69;100.00;71117.84;5075677;28;20665;-81
2022/07/30 01:08:03;;;;;;;5.28;2.33;;;;;;;-145.69;100.00;71119.84;5074861;28;20696;-80
2022/07/30 01:10:29;;;;;;;5.93;2.42;;;;;;;-145.69;100.00;71131.78;5075104;28;20226;-81
2022/07/30 01:12:57;;;;;;;3.88;2.72;;;;;;;-145.69;100.00;71141.72;5075380;28;20657;-81
2022/07/30 01:15:25;;;;;;;4.88;2.60;;;;;;;-145.69;100.00;71159.63;5075176;28;20199;-82
2022/07/30 01:17:55;;;;;;;4.68;2.50;;;;;;;-145.69;100.00;71173.56;5070485;28;20203;-81
2022/07/30 01:20:25;;;;;;;4.72;2.70;;;;;;;-145.69;100.00;71179.53;5073764;28;20669;-81
2022/07/30 01:22:59;;;;;;;4.05;2.80;;;;;;;-145.69;100.00;71193.47;5075525;28;20203;-81
2022/07/30 01:25:44;;;;;;;5.72;2.80;;;;;;;-145.69;100.00;71193.47;5075296;28;20195;-81
2022/07/30 01:28:14;;;;;;;5.15;2.67;;;;;;;-145.69;100.00;71199.44;5074662;28;20469;-82
2022/07/30 01:30:42;;;;;;;5.95;2.72;;;;;;;-145.69;100.00;71231.28;5073312;28;20226;-82
2022/07/30 01:33:13;;;;;;;5.80;2.95;;;;;;;-145.69;100.00;71247.19;5074118;28;20252;-81
2022/07/30 01:35:43;;;;;;;3.40;2.45;;;;;;;-145.69;100.00;71271.06;5075474;28;20198;-81
2022/07/30 01:38:12;;;;;;;4.65;3.28;;;;;;;-145.69;100.00;71273.06;5075259;28;20206;-81
2022/07/30 01:40:40;;;;;;;4.40;2.80;;;;;;;-145.69;100.00;71285.00;5075354;28;20229;-82
2022/07/30 01:43:08;;;;;;;5.45;2.80;;;;;;;-145.69;100.00;71294.94;5075443;28;20206;-81
2022/07/30 01:45:36;;;;;;;5.78;2.80;;;;;;;-145.69;100.00;71306.88;5075200;28;20198;-81
2022/07/30 01:48:05;;;;;;;5.07;3.05;;;;;;;-145.69;100.00;71326.78;5062522;28;20207;-81
2022/07/30 01:50:34;;;;;;;6.75;3.05;;;;;;;-145.69;100.00;71338.72;5067773;28;20245;-81
2022/07/30 01:53:02;;;;;;;4.22;3.05;;;;;;;-145.69;100.00;71348.66;5075183;28;20210;-81
2022/07/30 01:55:33;;;;;;;7.78;3.38;;;;;;;-145.69;100.00;71340.72;5074991;28;20199;-81
2022/07/30 01:58:01;;;;;;;6.05;3.47;;;;;;;-145.69;100.00;71344.69;5074960;28;20199;-81
2022/07/30 02:00:32;;;;;;;5.88;3.30;;;;;;;-145.69;100.00;71362.59;5074577;28;20199;-81
2022/07/30 02:02:59;;;;;;;5.90;3.73;;;;;;;-145.69;100.00;71366.56;5074158;28;20430;-81
2022/07/30 02:05:30;;;;;;;4.57;3.70;;;;;;;-145.69;100.00;71360.59;5074888;28;20441;-81
2022/07/30 02:08:03;;;;;;;7.03;3.33;;;;;;;-145.69;100.00;71384.47;5074846;28;20198;-81
2022/07/30 02:10:35;;;;;;;4.72;3.22;;;;;;;-145.69;100.00;71378.50;5074652;28;20734;-81
2022/07/30 02:13:06;;;;;;;3.78;3.28;;;;;;;-145.69;100.00;71402.41;5074165;28;20210;-81
2022/07/30 02:15:38;;;;;;;7.38;3.72;;;;;;;-145.69;100.00;71406.38;5074053;28;20191;-81
2022/07/30 02:18:13;;;;;;;6.20;3.80;;;;;;;-145.69;100.00;71404.38;5074582;28;20206;-81
2022/07/30 02:20:43;;;;;;;5.50;3.70;;;;;;;-145.69;100.00;71430.25;5074544;28;20199;-82
2022/07/30 02:23:12;;;;;;;6.70;3.65;;;;;;;-145.69;100.00;71430.25;5074312;28;20194;-80
2022/07/30 02:25:51;;;;;;;7.72;4.00;;;;;;;-145.69;100.00;71440.19;5072541;28;20210;-80
2022/07/30 02:28:19;;;;;;;6.03;3.85;;;;;;;-145.69;100.00;71434.22;5074593;28;20604;-81
2022/07/30 02:30:51;;;;;;;4.77;3.87;;;;;;;-145.69;100.00;71452.16;5073941;28;20230;-81
2022/07/30 02:33:21;;;;;;;10.60;4.80;;;;;;;-145.69;100.00;71458.09;5074317;28;20209;-81
2022/07/30 02:35:49;;;;;;;5.80;4.13;;;;;;;-145.69;100.00;71480.00;5074272;28;20306;-81
2022/07/30 02:38:19;;;;;;;4.33;3.50;;;;;;;-145.69;100.00;71462.09;5074275;28;20203;-80
2022/07/30 02:40:47;;;;;;;9.80;4.57;;;;;;;-145.69;100.00;71466.06;5073712;28;20203;-81
2022/07/30 02:43:15;;;;;;;9.47;4.60;;;;;;;-145.69;100.00;71478.00;5073695;28;20203;-81
2022/07/30 02:45:43;;;;;;;7.90;4.37;;;;;;;-145.69;100.00;71468.06;5073992;28;20241;-81
2022/07/30 02:48:13;;;;;;;8.50;4.50;;;;;;;-145.69;100.00;71472.03;5073854;28;20203;-79
2022/07/30 02:50:40;;;;;;;7.07;4.43;;;;;;;-145.69;100.00;71489.94;5073838;28;20578;-80
2022/07/30 02:53:09;;;;;;;8.73;4.63;;;;;;;-145.69;100.00;71487.97;5073995;28;20210;-80
2022/07/30 02:55:38;;;;;;;6.67;4.10;;;;;;;-145.69;100.00;71505.88;5073835;28;20235;-80
2022/07/30 02:58:07;;;;;;;6.70;3.97;;;;;;;-145.69;100.00;71509.84;5073803;28;20531;-80
2022/07/30 03:00:35;;;;;;;11.20;4.83;;;;;;;-145.69;100.00;71521.78;5073348;28;20198;-80
2022/07/30 03:03:05;;;;;;;8.93;4.87;;;;;;;-145.69;100.00;71525.78;5072256;28;20195;-80
2022/07/30 03:05:34;;;;;;;6.27;4.50;;;;;;;-145.69;100.00;71531.75;5073873;28;20237;-80
2022/07/30 03:08:02;;;;;;;6.30;4.93;;;;;;;-145.69;100.00;71533.72;5072503;28;20230;-80
2022/07/30 03:10:30;;;;;;;7.70;4.87;;;;;;;-145.69;100.00;71537.72;5073427;28;20227;-81
2022/07/30 03:12:58;;;;;;;8.15;5.75;;;;;;;-145.69;100.00;71551.63;5071991;28;20461;-80
2022/07/30 03:15:26;;;;;;;9.90;4.97;;;;;;;-145.69;100.00;71545.66;5071303;28;20199;-80
2022/07/30 03:17:54;;;;;;;8.20;5.27;;;;;;;-145.69;100.00;71537.72;5073231;28;20213;-80
2022/07/30 03:20:24;;;;;;;10.87;5.33;;;;;;;-145.69;100.00;71553.63;5073518;28;20229;-81
2022/07/30 03:22:54;;;;;;;7.30;4.87;;;;;;;-145.69;100.00;71565.56;5073539;28;20400;-80
2022/07/30 03:25:25;;;;;;;11.10;4.97;;;;;;;-145.69;100.00;71561.59;5073796;28;20534;-80
2022/07/30 03:27:54;;;;;;;8.40;5.13;;;;;;;-145.69;100.00;71565.56;5073093;28;20678;-80
2022/07/30 03:30:22;;;;;;;8.40;5.00;;;;;;;-145.69;100.00;71561.59;5073236;28;20223;-80
2022/07/30 03:32:49;;;;;;;13.93;5.23;;;;;;;-145.69;100.00;71565.56;5072780;28;20195;-80
2022/07/30 03:35:17;;;;;;;8.17;5.50;;;;;;;-145.69;100.00;71567.56;5073265;28;20195;-80
2022/07/30 03:37:44;;;;;;;10.70;5.67;;;;;;;-145.69;100.00;71569.53;5073097;28;20230;-80
2022/07/30 03:40:14;;;;;;;9.20;5.53;;;;;;;-145.69;100.00;71583.47;5066712;28;20203;-80
2022/07/30 03:42:41;;;;;;;9.67;5.60;;;;;;;-145.69;100.00;71597.41;5053165;28;20207;-80
2022/07/30 03:45:09;;;;;;;10.83;5.63;;;;;;;-145.69;100.00;71589.44;5053217;28;20199;-80
2022/07/30 03:47:38;;;;;;;7.93;6.00;;;;;;;-145.69;100.00;71601.38;5053065;28;20253;-80
2022/07/30 03:50:06;;;;;;;7.23;5.60;;;;;;;-145.69;100.00;71631.25;5052822;28;20239;-81
2022/07/30 03:52:34;;;;;;;7.93;4.80;;;;;;;-145.69;100.00;71645.16;5067252;28;20546;-81
2022/07/30 03:55:02;;;;;;;9.80;5.57;;;;;;;-145.69;100.00;71657.09;5072859;28;20609;-80
2022/07/30 03:57:30;;;;;;;9.10;5.57;;;;;;;-145.69;100.00;71653.13;5072658;28;20207;-80
2022/07/30 03:59:56;;;;;;;10.90;7.33;;;;;;;-145.69;100.00;71637.19;5073059;28;20195;-80
2022/07/30 04:02:23;;;;;;;10.03;7.20;;;;;;;-145.69;100.00;71639.19;5072922;28;20209;-80
2022/07/30 04:04:50;;;;;;;13.63;7.30;;;;;;;-145.69;100.00;71637.19;5072876;28;20198;-80
2022/07/30 04:07:17;;;;;;;11.57;7.20;;;;;;;-145.69;100.00;71645.16;5072825;28;20229;-81
2022/07/30 04:09:44;;;;;;;10.17;6.77;;;;;;;-145.69;100.00;71643.19;5073141;28;20206;-81
2022/07/30 04:12:12;;;;;;;14.63;7.20;;;;;;;-145.69;100.00;71647.16;5072871;28;20198;-80
2022/07/30 04:14:42;;;;;;;12.60;6.70;;;;;;;-145.69;100.00;71665.06;5072682;28;20680;-80
2022/07/30 04:17:13;;;;;;;12.03;7.03;;;;;;;-145.69;100.00;71663.06;5072637;28;20199;-80
2022/07/30 04:19:45;;;;;;;13.17;6.77;;;;;;;-145.69;100.00;71661.09;5072771;28;20226;-81
2022/07/30 04:22:15;;;;;;;10.43;7.70;;;;;;;-145.69;100.00;71653.13;5072211;28;20195;-80
2022/07/30 04:24:43;;;;;;;13.37;7.70;;;;;;;-145.69;100.00;71653.13;5070991;28;20565;-81
2022/07/30 04:27:11;;;;;;;10.97;6.97;;;;;;;-145.69;100.00;71653.13;5071636;28;20203;-80
2022/07/30 04:29:37;;;;;;;11.23;7.23;;;;;;;-145.69;100.00;71645.16;5072285;28;20680;-80
2022/07/30 04:32:07;;;;;;;10.67;7.07;;;;;;;-145.69;100.00;71649.16;5072022;28;20711;-80
2022/07/30 04:34:34;;;;;;;12.10;7.10;;;;;;;-145.69;100.00;71669.03;5071247;28;20198;-81
2022/07/30 04:37:00;;;;;;;10.83;6.63;;;;;;;-145.69;100.00;71671.03;5072168;28;20214;-80
2022/07/30 04:39:27;;;;;;;10.67;6.73;;;;;;;-145.69;100.00;71673.03;5072221;28;20199;-80
2022/07/30 04:41:53;;;;;;;11.10;6.67;;;;;;;-145.69;100.00;71680.97;5071882;28;20198;-81
2022/07/30 04:44:20;;;;;;;8.73;6.23;;;;;;;-145.69;100.00;71677.00;5072423;28;20202;-80
2022/07/30 04:46:47;;;;;;;9.37;5.83;;;;;;;-145.69;100.00;71688.94;5072743;28;20249;-80
2022/07/30 04:49:16;;;;;;;12.07;7.22;;;;;;;-145.69;100.00;71684.97;5071399;28;20445;-80
2022/07/30 04:51:44;;;;;;;10.27;6.97;;;;;;;-145.69;100.00;71679.00;5071363;28;20230;-80
2022/07/30 04:54:13;;;;;;;8.93;6.13;;;;;;;-145.69;100.00;71679.00;5071251;28;20207;-80
2022/07/30 04:56:40;;;;;;;9.80;6.37;;;;;;;-145.69;100.00;71679.00;5071405;28;20205;-80
2022/07/30 04:59:09;;;;;;;9.07;6.77;;;;;;;-145.69;100.00;71671.03;5072311;28;20654;-81
2022/07/30 05:01:38;;;;;;;23.03;7.73;;;;;;;-145.69;100.00;71659.09;5072462;28;20210;-80
2022/07/30 05:04:06;;;;;;;11.37;7.77;;;;;;;-145.69;100.00;71637.19;5072491;28;20210;-80
2022/07/30 05:06:35;;;;;;;12.63;7.37;;;;;;;-145.69;100.00;71619.28;5075282;28;20285;-80
2022/07/30 05:09:01;;;;;;;14.23;7.67;;;;;;;-145.69;100.00;71613.31;5075595;28;20203;-80
2022/07/30 05:11:28;;;;;;;13.97;7.17;;;;;;;-145.69;100.00;71599.41;5075066;28;20227;-81
2022/07/30 05:13:54;;;;;;;10.30;7.20;;;;;;;-145.69;100.00;71595.41;5075487;28;20207;-81
2022/07/30 05:16:21;;;;;;;14.57;7.63;;;;;;;-145.69;100.00;71583.47;5075400;28;20557;-81
2022/07/30 05:18:47;;;;;;;10.57;7.43;;;;;;;-145.69;100.00;71571.53;5075148;28;20199;-79
2022/07/30 05:21:13;;;;;;;12.20;6.63;;;;;;;-145.69;100.00;71569.53;5074395;28;20199;-81
2022/07/30 05:23:41;;;;;;;9.60;6.27;;;;;;;-145.69;100.00;71561.59;5075617;28;20565;-80
2022/07/30 05:26:08;;;;;;;8.70;6.57;;;;;;;-145.69;100.00;71547.66;5075475;28;20199;-81
2022/07/30 05:28:34;;;;;;;10.85;6.03;;;;;;;-145.69;100.00;71541.69;5074428;28;20214;-80
2022/07/30 05:31:01;;;;;;;11.00;6.80;;;;;;;-145.69;100.00;71527.75;5068593;28;20732;-81
2022/07/30 05:33:27;;;;;;;9.63;6.77;;;;;;;-145.69;100.00;71513.81;5055750;28;20195;-80
2022/07/30 05:35:53;;;;;;;7.73;5.70;;;;;;;-145.69;100.00;71505.88;5055377;28;20206;-81
2022/07/30 05:38:20;;;;;;;10.93;6.57;;;;;;;-145.69;100.00;71485.97;5055437;28;20286;-81
2022/07/30 05:40:48;;;;;;;7.55;5.70;;;;;;;-145.69;100.00;71468.06;5055334;28;20214;-81
2022/07/30 05:43:14;;;;;;;8.10;6.55;;;;;;;-145.69;100.00;71454.13;5055167;28;20535;-80
2022/07/30 05:45:40;;;;;;;10.45;7.18;;;;;;;-145.69;100.00;71420.31;5055139;28;20206;-81
2022/07/30 05:48:07;;;;;;;8.95;6.10;;;;;;;-145.69;100.00;71368.56;5055291;28;20199;-80
2022/07/30 05:50:33;;;;;;;7.85;4.70;;;;;;;-145.69;100.00;71308.88;5059273;28;20227;-81
2022/07/30 05:53:00;;;;;;;9.25;3.70;;;;;;;-145.69;100.00;71239.22;5075148;28;20202;-81
2022/07/30 05:55:26;;;;;;;6.68;4.10;;;;;;;-145.69;100.00;71187.50;5075098;28;20202;-81
2022/07/30 05:57:54;;;;;;;5.45;2.90;;;;;;;-145.69;100.00;71151.69;5074834;28;20222;-82
2022/07/30 06:00:20;;;;;;;4.95;3.20;;;;;;;-145.69;100.00;71145.72;5074894;28;20224;-81
2022/07/30 06:02:47;;;;;;;4.63;2.90;;;;;;;-145.69;100.00;71119.84;5074952;28;20205;-83
2022/07/30 06:05:13;;;;;;;4.68;3.00;;;;;;;-145.69;100.00;71103.94;5074984;28;20202;-81
2022/07/30 06:07:39;;;;;;;3.70;2.60;;;;;;;-145.69;100.00;71107.91;5075221;28;20658;-81
2022/07/30 06:10:07;;;;;;;7.38;3.30;;;;;;;-145.69;100.00;71115.88;5074725;28;20202;-81
2022/07/30 06:12:33;;;;;;;4.72;2.97;;;;;;;-145.69;100.00;71137.75;5074452;28;20227;-82
2022/07/30 06:15:01;;;;;;;7.80;3.30;;;;;;;-145.69;97.57;71099.94;5074762;28;20199;-82
2022/07/30 06:17:28;;;;;;;7.72;3.42;;;;;;;-145.69;98.39;71072.09;5074609;28;20226;-82
2022/07/30 06:19:54;;;;;;;5.03;2.92;;;;;;;-145.69;91.54;71018.38;5074589;28;20209;-82
2022/07/30 06:22:20;;;;;;;8.32;2.90;;;;;;;-145.69;89.14;70968.63;5073858;28;20731;-81
2022/07/30 06:24:47;;;;;;;6.78;3.08;;;;;;;-145.69;90.33;70952.72;5074243;28;20202;-80
2022/07/30 06:27:13;;;;;;;4.80;3.00;;;;;;;-145.69;87.29;70934.81;5074284;28;20229;-80
2022/07/30 06:29:40;;;;;;;12.15;2.72;;;;;;;-145.69;84.60;70912.91;5074131;28;20195;-80
2022/07/30 06:32:07;;;;;;;7.60;2.90;;;;;;;-145.69;83.99;70875.13;5074310;28;20233;-80
2022/07/30 06:34:34;;;;;;;7.07;3.25;;;;;;;-145.69;85.17;70908.94;5074363;28;20199;-80
2022/07/30 06:37:00;;;;;;;8.15;2.53;;;;;;;-145.69;81.52;70889.03;5074067;28;20206;-80
2022/07/30 06:39:27;;;;;;;7.53;2.92;;;;;;;-145.69;80.39;70857.22;5074071;28;20205;-80
2022/07/30 06:41:53;;;;;;;5.65;2.42;;;;;;;-145.69;81.55;70839.31;5074318;28;20853;-80
2022/07/30 06:44:20;;;;;;;5.68;2.95;;;;;;;-145.69;83.72;70857.22;5074161;28;20206;-80
2022/07/30 06:46:46;;;;;;;7.43;3.15;;;;;;;-145.69;83.19;70881.09;5072860;28;20438;-82
2022/07/30 06:49:14;;;;;;;5.75;2.85;;;;;;;-145.69;81.69;70908.94;5073680;28;20235;-82
2022/07/30 06:51:40;;;;;;;8.70;3.30;;;;;;;-145.69;84.19;70940.78;5071829;28;20230;-82
2022/07/30 06:54:07;;;;;;;9.63;3.65;;;;;;;-145.69;80.17;70924.84;5073773;28;20203;-82
2022/07/30 06:56:33;;;;;;;6.05;3.75;;;;;;;-145.69;77.58;70924.84;5072891;28;20684;-82
2022/07/30 06:58:59;;;;;;;9.93;3.58;;;;;;;-145.69;80.32;70922.88;5073427;28;20194;-81
2022/07/30 07:01:26;;;;;;;10.50;3.70;;;;;;;-145.69;79.02;70942.75;5073036;28;20195;-82
2022/07/30 07:03:52;;;;;;;8.07;4.18;;;;;;;-145.69;80.26;70964.66;5073701;28;20205;-82
2022/07/30 07:06:20;;;;;;;9.02;3.90;;;;;;;-145.69;80.02;70956.69;5073537;28;20222;-82
2022/07/30 07:08:47;;;;;;;7.20;3.60;;;;;;;-145.69;79.57;70930.81;5072869;28;20202;-81
2022/07/30 07:11:13;;;;;;;5.30;3.80;;;;;;;-145.69;79.73;70904.97;5073057;28;20659;-82
2022/07/30 07:13:39;;;;;;;8.02;3.60;;;;;;;-145.69;79.66;70924.84;5072951;28;20198;-82
2022/07/30 07:16:06;;;;;;;11.18;4.05;;;;;;;-145.69;80.31;70916.91;5073134;28;20202;-82
2022/07/30 07:18:32;;;;;;;10.82;3.70;;;;;;;-145.69;79.66;70899.00;5072584;28;20273;-81
2022/07/30 07:20:59;;;;;;;7.65;3.40;;;;;;;-145.69;79.40;70887.06;5072849;28;20433;-82
2022/07/30 07:23:26;;;;;;;12.45;4.03;;;;;;;-145.69;85.82;70865.16;5073483;28;20209;-83
2022/07/30 07:25:53;;;;;;;8.48;3.80;;;;;;;-145.69;79.35;70863.19;5073498;28;20202;-83
2022/07/30 07:28:19;;;;;;;10.13;3.83;;;;;;;-145.69;79.60;70847.25;5072900;28;20207;-83
2022/07/30 07:30:46;;;;;;;5.78;3.33;;;;;;;-145.69;73.84;70839.31;5073035;28;20194;-82
2022/07/30 07:33:12;;;;;;;5.68;3.10;;;;;;;-145.69;72.49;70811.44;5073171;28;20226;-82
2022/07/30 07:35:39;;;;;;;6.97;3.08;;;;;;;-145.69;75.78;70813.44;5072078;28;20568;-80
2022/07/30 07:38:05;;;;;;;8.77;2.97;;;;;;;-145.69;72.69;70831.34;5055105;28;20195;-79
2022/07/30 07:40:33;;;;;;;8.32;2.85;;;;;;;-145.69;70.29;70809.47;5052452;28;20203;-80
2022/07/30 07:42:59;;;;;;;4.70;2.70;;;;;;;-145.69;65.82;70809.47;5052904;28;20203;-81
2022/07/30 07:45:26;;;;;;;4.28;2.63;;;;;;;-145.69;64.66;70829.34;5052564;28;20207;-82
2022/07/30 07:47:52;;;;;;;7.00;2.97;;;;;;;-145.69;64.35;70825.38;5052902;28;20697;-82
2022/07/30 07:50:19;;;;;;;10.70;3.03;;;;;;;-145.69;67.27;70815.44;5052900;28;20319;-82
2022/07/30 07:52:46;;;;;;;5.00;2.10;;;;;;;-145.69;59.59;70777.63;5051579;28;20223;-85
2022/07/30 07:55:12;;;;;;;4.80;1.73;;;;;;;-145.69;56.62;70773.66;5052555;28;20206;-81
2022/07/30 07:57:41;;;;;;;3.35;2.40;;;;;;;-145.69;55.72;70759.72;5057378;28;20210;-80
2022/07/30 08:00:09;;;;;;;4.13;2.00;;;;;;;-145.69;55.70;70765.69;5071883;28;20308;-79
2022/07/30 08:02:36;;;;;;;9.02;2.05;;;;;;;-145.69;51.50;70773.66;5072566;28;20199;-80
2022/07/30 08:05:04;;;;;;;4.25;2.30;;;;;;;-145.69;49.34;70775.63;5072020;28;20676;-81
2022/07/30 08:07:31;;;;;;;3.53;1.70;;;;;;;-145.69;51.23;70781.59;5072380;28;20221;-81
2022/07/30 08:09:57;;;;;;;2.85;1.75;;;;;;;-145.69;50.52;70763.69;5072753;28;20225;-80
2022/07/30 08:12:24;;;;;;;3.28;1.42;;;;;;;-145.69;50.14;70745.78;5072673;28;20237;-79
2022/07/30 08:14:52;;;;;;;4.68;2.10;;;;;;;-145.69;50.06;70721.91;5072312;28;20203;-80
2022/07/30 08:17:19;;;;;;;6.13;1.95;;;;;;;-145.69;51.14;70725.91;5072627;28;20680;-79
2022/07/30 08:19:46;;;;;;;7.13;1.60;;;;;;;-145.69;52.26;70694.06;5072569;28;20202;-77
2022/07/30 08:22:12;;;;;;;4.60;1.50;;;;;;;-145.69;51.87;70680.13;5072470;28;20207;-80
2022/07/30 08:24:39;;;;;;;4.88;1.40;;;;;;;-145.69;52.96;70660.25;5072515;28;20206;-80
2022/07/30 08:27:06;;;;;;;3.20;1.50;;;;;;;-145.69;51.08;70662.22;5072152;28;20206;-80
2022/07/30 08:29:32;;;;;;;3.83;1.85;;;;;;;-145.69;49.96;70670.19;5072134;28;20213;-80
2022/07/30 08:32:00;;;;;;;5.47;1.50;;;;;;;-145.69;48.31;70668.19;5072451;28;20226;-79
2022/07/30 08:34:27;;;;;;;3.08;1.27;;;;;;;-145.69;45.50;70688.09;5072790;28;20207;-80
2022/07/30 08:36:53;;;;;;;4.50;1.40;;;;;;;-145.69;46.54;70662.22;5072421;28;20238;-79
2022/07/30 08:39:20;;;;;;;3.55;1.30;;;;;;;-145.69;45.54;70654.28;5072696;28;20199;-79
2022/07/30 08:41:46;;;;;;;2.30;1.50;;;;;;;-145.69;46.21;70656.25;5076224;28;20215;-80
2022/07/30 08:44:14;;;;;;;4.10;1.75;;;;;;;-145.69;45.87;70648.31;5074872;28;20202;-79
2022/07/30 08:46:42;;;;;;;6.40;1.55;;;;;;;-145.69;46.08;70642.34;5074759;28;20203;-78
2022/07/30 08:49:12;;;;;;;4.50;1.50;;;;;;;-145.69;45.77;70630.41;5075051;28;20238;-79
2022/07/30 08:51:39;;;;;;;2.95;1.35;;;;;;;-145.69;45.03;70614.47;5076259;28;20293;-80
2022/07/30 08:54:06;;;;;;;2.65;1.38;;;;;;;-145.69;48.00;70590.63;5076202;28;20272;-80
2022/07/30 08:56:33;;;;;;;3.15;1.30;;;;;;;-145.69;44.02;70618.47;5075751;28;20199;-80
2022/07/30 08:59:00;;;;;;;5.15;1.70;;;;;;;-145.69;44.33;70610.50;5074480;28;20445;-80
2022/07/30 09:01:28;;;;;;;3.88;1.38;;;;;;;-145.69;42.89;70612.50;5075876;28;20202;-80
2022/07/30 09:03:54;;;;;;;2.80;1.30;;;;;;;-145.69;42.91;70586.63;5075198;28;20210;-80
2022/07/30 09:06:22;;;;;;;2.72;1.10;;;;;;;-145.69;45.29;70526.94;5075258;28;20209;-80
2022/07/30 09:08:48;;;;;;;4.50;1.38;;;;;;;-145.69;42.81;70511.03;5075071;28;20819;-80
2022/07/30 09:11:15;;;;;;;1.98;1.23;;;;;;;-145.69;42.50;70457.31;5074908;28;20195;-80
2022/07/30 09:13:43;;;;;;;4.35;1.30;;;;;;;-145.69;42.38;70491.13;5075712;28;20234;-80
2022/07/30 09:16:19;;;;;;;4.68;1.40;;;;;;;-145.69;44.21;70540.88;5075857;28;20644;-81
2022/07/30 09:18:45;;;;;;;2.53;1.60;;;;;;;-145.69;44.07;70475.22;5075812;28;20198;-79
2022/07/30 09:21:17;;;;;;;2.50;1.48;;;;;;;-145.69;42.90;70499.09;5075620;28;20202;-80
2022/07/30 09:23:57;;;;;;;5.93;1.42;;;;;;;-145.69;44.41;70495.13;5075691;28;20202;-79
2022/07/30 09:26:24;;;;;;;3.45;1.40;;;;;;;-145.69;42.62;70475.22;5075563;28;20217;-80
2022/07/30 09:28:50;;;;;;;3.13;1.60;;;;;;;-145.69;43.71;70455.34;5069572;28;20199;-80
2022/07/30 09:31:18;;;;;;;5.90;1.45;;;;;;;-145.69;42.63;70473.22;5075608;28;20206;-80
2022/07/30 09:33:46;;;;;;;4.63;1.40;;;;;;;-145.69;43.44;70467.28;5075279;28;20234;-78
2022/07/30 09:36:14;;;;;;;3.05;1.27;;;;;;;-145.69;43.66;70463.28;5075319;28;20199;-78
2022/07/30 09:38:46;;;;;;;5.97;1.30;;;;;;;-145.69;43.35;70483.19;5075389;28;20561;-79
2022/07/30 09:41:15;;;;;;;4.90;1.48;;;;;;;-145.69;43.38;70493.13;5075329;28;20205;-78
2022/07/30 09:43:43;;;;;;;5.18;1.73;;;;;;;-145.69;42.83;70511.03;5074059;28;20905;-78
2022/07/30 09:46:09;;;;;;;2.45;1.50;;;;;;;-145.69;43.69;70449.38;5075392;28;20198;-79
2022/07/30 09:48:36;;;;;;;2.47;1.25;;;;;;;-145.69;48.08;70385.69;5075151;28;20214;-79
2022/07/30 09:51:03;;;;;;;7.57;1.52;;;;;;;-145.69;42.95;70353.88;5074369;28;20234;-79
2022/07/30 09:53:30;;;;;;;3.47;1.60;;;;;;;-145.69;42.96;70407.59;5069124;28;20237;-78
2022/07/30 09:55:57;;;;;;;5.95;1.58;;;;;;;-145.69;43.36;70447.38;5073872;28;20199;-80
2022/07/30 09:58:37;;;;;;;2.67;1.52;;;;;;;-145.69;42.74;70487.16;5074260;28;20206;-81
2022/07/30 10:01:03;;;;;;;2.45;1.48;;;;;;;-145.69;44.48;70485.16;5054612;28;20200;-79
2022/07/30 10:03:30;;;;;;;3.65;1.70;;;;;;;-145.69;44.07;70507.06;5054461;28;20606;-79
2022/07/30 10:05:58;;;;;;;4.93;1.50;;;;;;;-145.69;44.31;70479.19;5054662;28;20202;-78
2022/07/30 10:08:40;;;;;;;4.55;1.40;;;;;;;-145.69;44.33;70383.72;5054281;28;20211;-79
2022/07/30 10:11:10;;;;;;;3.30;1.48;;;;;;;-145.69;42.01;70397.63;5054378;28;20646;-79
2022/07/30 10:13:38;;;;;;;4.72;1.75;;;;;;;-145.69;43.67;70419.53;5054295;28;20231;-79
2022/07/30 10:16:06;;;;;;;2.63;1.58;;;;;;;-145.69;42.60;70419.53;5054458;28;20607;-78
2022/07/30 10:18:33;;;;;;;1.75;1.10;;;;;;;-145.69;42.83;70387.69;5054226;28;20195;-79
2022/07/30 10:21:00;;;;;;;2.70;1.10;;;;;;;-145.69;41.88;70351.88;5054672;28;20213;-80
2022/07/30 10:23:28;;;;;;;4.57;1.40;;;;;;;-145.69;40.03;70405.59;5053268;28;20231;-79
2022/07/30 10:25:55;;;;;;;7.00;1.00;;;;;;;-145.69;41.21;70355.88;5053806;28;20207;-79
2022/07/30 10:28:22;;;;;;;1.85;1.20;;;;;;;-145.69;42.49;70320.06;5058608;28;20198;-80
2022/07/30 10:30:51;;;;;;;2.05;1.20;;;;;;;-145.69;39.85;70330.00;5074012;28;20203;-81
2022/07/30 10:33:18;;;;;;;2.92;1.40;;;;;;;-145.69;39.67;70351.88;5073681;28;20226;-79
2022/07/30 10:35:45;;;;;;;3.88;1.30;;;;;;;-145.69;41.17;70363.81;5073653;28;20207;-79
2022/07/30 10:38:14;;;;;;;4.05;1.58;;;;;;;-145.69;41.77;70347.91;5074107;28;20199;-80
2022/07/30 10:40:47;;;;;;;4.97;1.38;;;;;;;-145.69;44.11;70278.28;5072202;28;20202;-80
2022/07/30 10:43:47;;;;;;;1.10;0.98;;;;;;;-145.69;40.55;70288.22;5073965;28;20206;-79
2022/07/30 10:46:26;;;;;;;4.47;1.60;;;;;;;-145.69;41.45;70349.91;5072148;28;20546;-81
2022/07/30 10:48:54;;;;;;;3.25;1.23;;;;;;;-145.69;40.62;70411.56;5073540;28;20199;-78
2022/07/30 10:51:21;;;;;;;3.05;1.63;;;;;;;-145.69;41.79;70469.25;5073394;28;20199;-79
2022/07/30 10:53:48;;;;;;;1.98;1.35;;;;;;;-145.69;42.63;70425.50;5072879;28;20234;-77
2022/07/30 10:56:17;;;;;;;3.00;1.10;;;;;;;-145.69;40.69;70347.91;5073092;28;20206;-77
2022/07/30 10:58:59;;;;;;;4.10;1.17;;;;;;;-145.69;39.39;70335.97;5073156;28;20293;-79
2022/07/30 11:02:05;;;;;;;3.05;1.17;;;;;;;-145.69;39.53;70308.13;5073061;28;20710;-78
2022/07/30 11:04:31;;;;;;;2.28;1.20;;;;;;;-145.69;42.01;70180.81;5071245;28;20206;-79
2022/07/30 11:07:28;;;;;;;2.25;1.38;;;;;;;-145.69;38.45;70129.09;5073612;28;20569;-78
2022/07/30 11:09:55;;;;;;;3.00;1.20;;;;;;;-145.69;39.05;70232.53;5071825;28;20198;-78
2022/07/30 11:12:52;;;;;;;1.58;1.10;;;;;;;-145.69;39.56;70286.25;5073373;28;20699;-80
2022/07/30 11:15:18;;;;;;;4.95;1.30;;;;;;;-145.69;39.66;70339.94;5072838;28;20206;-78
2022/07/30 11:18:01;;;;;;;6.10;1.65;;;;;;;-145.69;39.73;70335.97;5072664;28;20215;-77